sensor_id;sensor_type;location;lat;lon;timestamp;P1;durP1;ratioP1;P2;durP2;ratioP2
8086;SDS011;4086;54.412;9.980;2023-06-14T00:00:44;6.90;;;3.90;;
8086;SDS011;4086;54.412;9.980;2023-06-14T00:03:13;6.43;;;3.90;;
8086;SDS011;4086;54.412;9.980;2023-06-14T00:05:42;4.23;;;3.70;;
8086;SDS011;4086;54.412;9.980;2023-06-14T00:08:09;6.57;;;3.87;;
8086;SDS011;4086;54.412;9.980;2023-06-14T00:10:36;5.03;;;3.93;;
8086;SDS011;4086;54.412;9.980;2023-06-14T00:13:04;6.00;;;3.97;;
8086;SDS011;4086;54.412;9.980;2023-06-14T00:15:32;5.37;;;4.00;;
8086;SDS011;4086;54.412;9.980;2023-06-14T00:18:00;4.47;;;3.70;;
8086;SDS011;4086;54.412;9.980;2023-06-14T00:20:27;4.37;;;3.87;;
8086;SDS011;4086;54.412;9.980;2023-06-14T00:22:54;6.67;;;3.97;;
8086;SDS011;4086;54.412;9.980;2023-06-14T00:25:22;5.33;;;4.17;;
8086;SDS011;4086;54.412;9.980;2023-06-14T00:27:48;6.30;;;4.37;;
8086;SDS011;4086;54.412;9.980;2023-06-14T00:30:15;6.40;;;4.33;;
8086;SDS011;4086;54.412;9.980;2023-06-14T00:32:41;6.07;;;4.13;;
8086;SDS011;4086;54.412;9.980;2023-06-14T00:35:09;7.67;;;4.33;;
8086;SDS011;4086;54.412;9.980;2023-06-14T00:37:36;5.87;;;4.37;;
8086;SDS011;4086;54.412;9.980;2023-06-14T00:40:03;5.53;;;4.60;;
8086;SDS011;4086;54.412;9.980;2023-06-14T00:42:30;8.87;;;5.07;;
8086;SDS011;4086;54.412;9.980;2023-06-14T00:44:57;6.73;;;4.40;;
8086;SDS011;4086;54.412;9.980;2023-06-14T00:47:24;7.63;;;4.43;;
8086;SDS011;4086;54.412;9.980;2023-06-14T00:49:52;6.40;;;4.87;;
8086;SDS011;4086;54.412;9.980;2023-06-14T00:52:20;6.80;;;5.00;;
8086;SDS011;4086;54.412;9.980;2023-06-14T00:54:49;7.30;;;4.90;;
8086;SDS011;4086;54.412;9.980;2023-06-14T00:57:15;7.17;;;4.73;;
8086;SDS011;4086;54.412;9.980;2023-06-14T00:59:43;4.67;;;4.20;;
8086;SDS011;4086;54.412;9.980;2023-06-14T01:02:10;7.00;;;4.93;;
8086;SDS011;4086;54.412;9.980;2023-06-14T01:04:37;7.13;;;4.60;;
8086;SDS011;4086;54.412;9.980;2023-06-14T01:07:07;6.53;;;4.70;;
8086;SDS011;4086;54.412;9.980;2023-06-14T01:09:46;6.47;;;4.50;;
8086;SDS011;4086;54.412;9.980;2023-06-14T01:12:15;6.90;;;4.90;;
8086;SDS011;4086;54.412;9.980;2023-06-14T01:14:46;6.53;;;4.70;;
8086;SDS011;4086;54.412;9.980;2023-06-14T01:17:13;6.67;;;4.70;;
8086;SDS011;4086;54.412;9.980;2023-06-14T01:19:41;8.40;;;4.67;;
8086;SDS011;4086;54.412;9.980;2023-06-14T01:22:09;7.30;;;5.33;;
8086;SDS011;4086;54.412;9.980;2023-06-14T01:24:37;5.93;;;5.03;;
8086;SDS011;4086;54.412;9.980;2023-06-14T01:27:04;6.13;;;5.27;;
8086;SDS011;4086;54.412;9.980;2023-06-14T01:29:32;7.27;;;5.13;;
8086;SDS011;4086;54.412;9.980;2023-06-14T01:32:01;8.23;;;5.40;;
8086;SDS011;4086;54.412;9.980;2023-06-14T01:34:27;6.13;;;4.80;;
8086;SDS011;4086;54.412;9.980;2023-06-14T01:36:54;9.70;;;5.03;;
8086;SDS011;4086;54.412;9.980;2023-06-14T01:39:21;8.37;;;5.13;;
8086;SDS011;4086;54.412;9.980;2023-06-14T01:41:50;8.30;;;5.60;;
8086;SDS011;4086;54.412;9.980;2023-06-14T01:44:17;7.80;;;5.07;;
8086;SDS011;4086;54.412;9.980;2023-06-14T01:46:44;7.43;;;5.13;;
8086;SDS011;4086;54.412;9.980;2023-06-14T01:49:11;5.77;;;4.67;;
8086;SDS011;4086;54.412;9.980;2023-06-14T01:51:38;6.30;;;4.67;;
8086;SDS011;4086;54.412;9.980;2023-06-14T01:54:04;8.37;;;4.60;;
8086;SDS011;4086;54.412;9.980;2023-06-14T01:56:30;6.87;;;4.40;;
8086;SDS011;4086;54.412;9.980;2023-06-14T01:58:58;6.03;;;4.63;;
8086;SDS011;4086;54.412;9.980;2023-06-14T02:01:25;7.33;;;4.53;;
8086;SDS011;4086;54.412;9.980;2023-06-14T02:03:51;6.97;;;4.40;;
8086;SDS011;4086;54.412;9.980;2023-06-14T02:06:18;4.60;;;4.17;;
8086;SDS011;4086;54.412;9.980;2023-06-14T02:08:45;8.57;;;4.47;;
8086;SDS011;4086;54.412;9.980;2023-06-14T02:11:11;6.90;;;4.67;;
8086;SDS011;4086;54.412;9.980;2023-06-14T02:13:37;6.03;;;3.90;;
8086;SDS011;4086;54.412;9.980;2023-06-14T02:16:05;6.37;;;4.40;;
8086;SDS011;4086;54.412;9.980;2023-06-14T02:18:32;6.87;;;4.10;;
8086;SDS011;4086;54.412;9.980;2023-06-14T02:20:58;9.00;;;4.70;;
8086;SDS011;4086;54.412;9.980;2023-06-14T02:23:25;6.73;;;4.40;;
8086;SDS011;4086;54.412;9.980;2023-06-14T02:25:51;7.90;;;4.30;;
8086;SDS011;4086;54.412;9.980;2023-06-14T02:28:18;5.73;;;4.37;;
8086;SDS011;4086;54.412;9.980;2023-06-14T02:30:44;7.57;;;4.00;;
8086;SDS011;4086;54.412;9.980;2023-06-14T02:33:12;7.03;;;4.30;;
8086;SDS011;4086;54.412;9.980;2023-06-14T02:35:38;5.20;;;4.30;;
8086;SDS011;4086;54.412;9.980;2023-06-14T02:38:05;7.07;;;4.00;;
8086;SDS011;4086;54.412;9.980;2023-06-14T02:40:31;5.03;;;4.10;;
8086;SDS011;4086;54.412;9.980;2023-06-14T02:42:57;5.50;;;4.27;;
8086;SDS011;4086;54.412;9.980;2023-06-14T02:45:24;8.30;;;4.40;;
8086;SDS011;4086;54.412;9.980;2023-06-14T02:47:50;6.73;;;4.10;;
8086;SDS011;4086;54.412;9.980;2023-06-14T02:50:18;4.90;;;4.10;;
8086;SDS011;4086;54.412;9.980;2023-06-14T02:52:46;4.23;;;3.73;;
8086;SDS011;4086;54.412;9.980;2023-06-14T02:55:12;6.07;;;3.93;;
8086;SDS011;4086;54.412;9.980;2023-06-14T02:57:39;5.73;;;4.40;;
8086;SDS011;4086;54.412;9.980;2023-06-14T03:00:06;6.87;;;4.50;;
8086;SDS011;4086;54.412;9.980;2023-06-14T03:02:34;8.70;;;4.10;;
8086;SDS011;4086;54.412;9.980;2023-06-14T03:05:01;7.20;;;4.67;;
8086;SDS011;4086;54.412;9.980;2023-06-14T03:07:29;6.90;;;4.33;;
8086;SDS011;4086;54.412;9.980;2023-06-14T03:09:56;7.27;;;4.50;;
8086;SDS011;4086;54.412;9.980;2023-06-14T03:12:22;4.57;;;4.10;;
8086;SDS011;4086;54.412;9.980;2023-06-14T03:14:49;8.43;;;5.00;;
8086;SDS011;4086;54.412;9.980;2023-06-14T03:17:16;7.30;;;4.57;;
8086;SDS011;4086;54.412;9.980;2023-06-14T03:19:44;6.47;;;4.40;;
8086;SDS011;4086;54.412;9.980;2023-06-14T03:22:11;7.27;;;4.63;;
8086;SDS011;4086;54.412;9.980;2023-06-14T03:24:39;8.03;;;4.50;;
8086;SDS011;4086;54.412;9.980;2023-06-14T03:27:06;8.00;;;4.70;;
8086;SDS011;4086;54.412;9.980;2023-06-14T03:29:34;7.50;;;4.77;;
8086;SDS011;4086;54.412;9.980;2023-06-14T03:32:02;6.10;;;4.23;;
8086;SDS011;4086;54.412;9.980;2023-06-14T03:34:29;4.80;;;4.30;;
8086;SDS011;4086;54.412;9.980;2023-06-14T03:36:55;5.10;;;4.50;;
8086;SDS011;4086;54.412;9.980;2023-06-14T03:39:22;4.90;;;4.10;;
8086;SDS011;4086;54.412;9.980;2023-06-14T03:41:49;7.30;;;4.60;;
8086;SDS011;4086;54.412;9.980;2023-06-14T03:44:16;8.73;;;4.50;;
8086;SDS011;4086;54.412;9.980;2023-06-14T03:46:43;5.10;;;4.60;;
8086;SDS011;4086;54.412;9.980;2023-06-14T03:49:10;6.57;;;4.60;;
8086;SDS011;4086;54.412;9.980;2023-06-14T03:51:36;7.17;;;4.50;;
8086;SDS011;4086;54.412;9.980;2023-06-14T03:54:03;7.37;;;4.37;;
8086;SDS011;4086;54.412;9.980;2023-06-14T03:56:29;6.00;;;4.27;;
8086;SDS011;4086;54.412;9.980;2023-06-14T03:58:57;6.27;;;4.40;;
8086;SDS011;4086;54.412;9.980;2023-06-14T04:01:23;8.20;;;3.97;;
8086;SDS011;4086;54.412;9.980;2023-06-14T04:03:52;7.13;;;4.80;;
8086;SDS011;4086;54.412;9.980;2023-06-14T04:06:18;6.53;;;4.40;;
8086;SDS011;4086;54.412;9.980;2023-06-14T04:08:45;5.77;;;3.67;;
8086;SDS011;4086;54.412;9.980;2023-06-14T04:11:14;6.70;;;4.10;;
8086;SDS011;4086;54.412;9.980;2023-06-14T04:13:40;6.40;;;4.27;;
8086;SDS011;4086;54.412;9.980;2023-06-14T04:16:08;5.30;;;4.23;;
8086;SDS011;4086;54.412;9.980;2023-06-14T04:18:35;7.90;;;4.30;;
8086;SDS011;4086;54.412;9.980;2023-06-14T04:21:01;8.47;;;4.43;;
8086;SDS011;4086;54.412;9.980;2023-06-14T04:23:27;8.87;;;4.43;;
8086;SDS011;4086;54.412;9.980;2023-06-14T04:25:55;5.50;;;3.90;;
8086;SDS011;4086;54.412;9.980;2023-06-14T04:28:26;5.80;;;3.77;;
8086;SDS011;4086;54.412;9.980;2023-06-14T04:30:53;5.53;;;4.30;;
8086;SDS011;4086;54.412;9.980;2023-06-14T04:33:21;6.57;;;4.03;;
8086;SDS011;4086;54.412;9.980;2023-06-14T04:35:50;8.53;;;4.47;;
8086;SDS011;4086;54.412;9.980;2023-06-14T04:38:18;6.30;;;3.90;;
8086;SDS011;4086;54.412;9.980;2023-06-14T04:40:49;5.97;;;4.00;;
8086;SDS011;4086;54.412;9.980;2023-06-14T04:43:18;6.50;;;4.40;;
8086;SDS011;4086;54.412;9.980;2023-06-14T04:45:52;5.53;;;3.80;;
8086;SDS011;4086;54.412;9.980;2023-06-14T04:48:19;6.47;;;4.60;;
8086;SDS011;4086;54.412;9.980;2023-06-14T04:50:47;6.63;;;4.37;;
8086;SDS011;4086;54.412;9.980;2023-06-14T04:53:17;5.07;;;4.10;;
8086;SDS011;4086;54.412;9.980;2023-06-14T04:55:47;6.43;;;4.43;;
8086;SDS011;4086;54.412;9.980;2023-06-14T04:58:15;5.50;;;4.30;;
8086;SDS011;4086;54.412;9.980;2023-06-14T05:00:41;7.77;;;4.23;;
8086;SDS011;4086;54.412;9.980;2023-06-14T05:03:08;7.23;;;4.40;;
8086;SDS011;4086;54.412;9.980;2023-06-14T05:05:38;8.57;;;4.23;;
8086;SDS011;4086;54.412;9.980;2023-06-14T05:08:07;6.27;;;4.30;;
8086;SDS011;4086;54.412;9.980;2023-06-14T05:10:33;5.60;;;4.30;;
8086;SDS011;4086;54.412;9.980;2023-06-14T05:13:01;7.00;;;4.33;;
8086;SDS011;4086;54.412;9.980;2023-06-14T05:15:27;7.63;;;4.70;;
8086;SDS011;4086;54.412;9.980;2023-06-14T05:17:54;4.63;;;4.13;;
8086;SDS011;4086;54.412;9.980;2023-06-14T05:20:20;5.07;;;4.10;;
8086;SDS011;4086;54.412;9.980;2023-06-14T05:22:48;5.97;;;4.17;;
8086;SDS011;4086;54.412;9.980;2023-06-14T05:25:18;6.07;;;3.93;;
8086;SDS011;4086;54.412;9.980;2023-06-14T05:27:44;5.50;;;4.10;;
8086;SDS011;4086;54.412;9.980;2023-06-14T05:30:11;5.93;;;3.90;;
8086;SDS011;4086;54.412;9.980;2023-06-14T05:32:38;5.73;;;3.77;;
8086;SDS011;4086;54.412;9.980;2023-06-14T05:35:05;5.23;;;3.90;;
8086;SDS011;4086;54.412;9.980;2023-06-14T05:37:32;5.23;;;3.93;;
8086;SDS011;4086;54.412;9.980;2023-06-14T05:39:58;4.10;;;3.60;;
8086;SDS011;4086;54.412;9.980;2023-06-14T05:42:26;4.00;;;3.57;;
8086;SDS011;4086;54.412;9.980;2023-06-14T05:44:52;6.27;;;3.70;;
8086;SDS011;4086;54.412;9.980;2023-06-14T05:47:20;5.47;;;4.10;;
8086;SDS011;4086;54.412;9.980;2023-06-14T05:49:46;4.40;;;3.90;;
8086;SDS011;4086;54.412;9.980;2023-06-14T05:52:13;7.77;;;3.90;;
8086;SDS011;4086;54.412;9.980;2023-06-14T05:54:40;4.70;;;3.47;;
8086;SDS011;4086;54.412;9.980;2023-06-14T05:57:06;6.27;;;3.40;;
8086;SDS011;4086;54.412;9.980;2023-06-14T05:59:34;5.73;;;3.47;;
8086;SDS011;4086;54.412;9.980;2023-06-14T06:02:01;4.50;;;3.80;;
8086;SDS011;4086;54.412;9.980;2023-06-14T06:04:27;5.40;;;3.70;;
8086;SDS011;4086;54.412;9.980;2023-06-14T06:06:54;6.67;;;3.87;;
8086;SDS011;4086;54.412;9.980;2023-06-14T06:09:20;6.33;;;3.70;;
8086;SDS011;4086;54.412;9.980;2023-06-14T06:11:46;5.87;;;3.50;;
8086;SDS011;4086;54.412;9.980;2023-06-14T06:14:13;3.90;;;3.60;;
8086;SDS011;4086;54.412;9.980;2023-06-14T06:16:41;6.40;;;3.57;;
8086;SDS011;4086;54.412;9.980;2023-06-14T06:19:07;4.00;;;3.60;;
8086;SDS011;4086;54.412;9.980;2023-06-14T06:21:33;6.23;;;3.50;;
8086;SDS011;4086;54.412;9.980;2023-06-14T06:24:00;5.00;;;3.50;;
8086;SDS011;4086;54.412;9.980;2023-06-14T06:26:28;5.70;;;3.60;;
8086;SDS011;4086;54.412;9.980;2023-06-14T06:28:55;6.20;;;3.40;;
8086;SDS011;4086;54.412;9.980;2023-06-14T06:31:22;4.33;;;3.20;;
8086;SDS011;4086;54.412;9.980;2023-06-14T06:33:50;5.67;;;3.40;;
8086;SDS011;4086;54.412;9.980;2023-06-14T06:36:16;5.37;;;3.47;;
8086;SDS011;4086;54.412;9.980;2023-06-14T06:38:42;4.20;;;3.57;;
8086;SDS011;4086;54.412;9.980;2023-06-14T06:41:09;4.17;;;3.77;;
8086;SDS011;4086;54.412;9.980;2023-06-14T06:43:36;4.10;;;3.50;;
8086;SDS011;4086;54.412;9.980;2023-06-14T06:46:02;5.77;;;3.37;;
8086;SDS011;4086;54.412;9.980;2023-06-14T06:48:28;6.07;;;3.50;;
8086;SDS011;4086;54.412;9.980;2023-06-14T06:50:56;4.07;;;3.63;;
8086;SDS011;4086;54.412;9.980;2023-06-14T06:53:22;5.70;;;3.83;;
8086;SDS011;4086;54.412;9.980;2023-06-14T06:55:49;5.10;;;3.67;;
8086;SDS011;4086;54.412;9.980;2023-06-14T06:58:15;6.63;;;3.30;;
8086;SDS011;4086;54.412;9.980;2023-06-14T07:00:42;3.87;;;3.47;;
8086;SDS011;4086;54.412;9.980;2023-06-14T07:03:08;3.70;;;3.40;;
8086;SDS011;4086;54.412;9.980;2023-06-14T07:05:35;6.87;;;3.90;;
8086;SDS011;4086;54.412;9.980;2023-06-14T07:08:03;5.00;;;3.17;;
8086;SDS011;4086;54.412;9.980;2023-06-14T07:10:29;6.83;;;3.57;;
8086;SDS011;4086;54.412;9.980;2023-06-14T07:12:56;6.00;;;3.30;;
8086;SDS011;4086;54.412;9.980;2023-06-14T07:15:22;6.73;;;3.20;;
8086;SDS011;4086;54.412;9.980;2023-06-14T07:17:49;6.10;;;3.70;;
8086;SDS011;4086;54.412;9.980;2023-06-14T07:20:15;4.33;;;3.40;;
8086;SDS011;4086;54.412;9.980;2023-06-14T07:22:42;3.30;;;3.00;;
8086;SDS011;4086;54.412;9.980;2023-06-14T07:25:10;7.30;;;3.60;;
8086;SDS011;4086;54.412;9.980;2023-06-14T07:27:39;5.27;;;3.23;;
8086;SDS011;4086;54.412;9.980;2023-06-14T07:30:06;7.27;;;3.77;;
8086;SDS011;4086;54.412;9.980;2023-06-14T07:32:34;3.30;;;3.00;;
8086;SDS011;4086;54.412;9.980;2023-06-14T07:35:00;4.93;;;3.23;;
8086;SDS011;4086;54.412;9.980;2023-06-14T07:37:26;5.93;;;3.33;;
8086;SDS011;4086;54.412;9.980;2023-06-14T07:39:53;4.27;;;3.43;;
8086;SDS011;4086;54.412;9.980;2023-06-14T07:42:21;6.90;;;3.50;;
8086;SDS011;4086;54.412;9.980;2023-06-14T07:44:47;4.80;;;3.10;;
8086;SDS011;4086;54.412;9.980;2023-06-14T07:47:15;6.30;;;3.00;;
8086;SDS011;4086;54.412;9.980;2023-06-14T07:49:41;5.50;;;3.20;;
8086;SDS011;4086;54.412;9.980;2023-06-14T07:52:08;4.40;;;3.30;;
8086;SDS011;4086;54.412;9.980;2023-06-14T07:54:34;4.37;;;3.20;;
8086;SDS011;4086;54.412;9.980;2023-06-14T07:57:01;7.80;;;3.30;;
8086;SDS011;4086;54.412;9.980;2023-06-14T07:59:29;4.90;;;3.57;;
8086;SDS011;4086;54.412;9.980;2023-06-14T08:01:55;4.53;;;3.10;;
8086;SDS011;4086;54.412;9.980;2023-06-14T08:04:21;5.07;;;3.40;;
8086;SDS011;4086;54.412;9.980;2023-06-14T08:06:48;3.20;;;2.70;;
8086;SDS011;4086;54.412;9.980;2023-06-14T08:09:15;5.53;;;3.30;;
8086;SDS011;4086;54.412;9.980;2023-06-14T08:11:41;5.20;;;3.50;;
8086;SDS011;4086;54.412;9.980;2023-06-14T08:14:08;4.77;;;2.90;;
8086;SDS011;4086;54.412;9.980;2023-06-14T08:16:36;5.77;;;3.37;;
8086;SDS011;4086;54.412;9.980;2023-06-14T08:19:02;3.53;;;3.23;;
8086;SDS011;4086;54.412;9.980;2023-06-14T08:21:29;6.47;;;3.73;;
8086;SDS011;4086;54.412;9.980;2023-06-14T08:23:58;4.47;;;3.30;;
8086;SDS011;4086;54.412;9.980;2023-06-14T08:26:25;3.07;;;2.87;;
8086;SDS011;4086;54.412;9.980;2023-06-14T08:28:53;4.70;;;3.17;;
8086;SDS011;4086;54.412;9.980;2023-06-14T08:31:20;6.27;;;3.20;;
8086;SDS011;4086;54.412;9.980;2023-06-14T08:33:48;5.10;;;3.20;;
8086;SDS011;4086;54.412;9.980;2023-06-14T08:36:14;4.00;;;3.23;;
8086;SDS011;4086;54.412;9.980;2023-06-14T08:38:41;4.23;;;3.00;;
8086;SDS011;4086;54.412;9.980;2023-06-14T08:41:08;5.93;;;3.00;;
8086;SDS011;4086;54.412;9.980;2023-06-14T08:43:39;4.30;;;2.83;;
8086;SDS011;4086;54.412;9.980;2023-06-14T08:46:05;7.93;;;3.37;;
8086;SDS011;4086;54.412;9.980;2023-06-14T08:48:33;4.73;;;3.03;;
8086;SDS011;4086;54.412;9.980;2023-06-14T08:51:02;4.43;;;3.30;;
8086;SDS011;4086;54.412;9.980;2023-06-14T08:53:29;3.93;;;2.97;;
8086;SDS011;4086;54.412;9.980;2023-06-14T08:55:56;4.33;;;3.20;;
8086;SDS011;4086;54.412;9.980;2023-06-14T08:58:25;3.97;;;3.30;;
8086;SDS011;4086;54.412;9.980;2023-06-14T09:00:54;5.67;;;3.20;;
8086;SDS011;4086;54.412;9.980;2023-06-14T09:03:21;3.63;;;3.20;;
8086;SDS011;4086;54.412;9.980;2023-06-14T09:05:48;3.80;;;2.90;;
8086;SDS011;4086;54.412;9.980;2023-06-14T09:08:16;4.03;;;3.07;;
8086;SDS011;4086;54.412;9.980;2023-06-14T09:10:44;4.25;;;3.13;;
8086;SDS011;4086;54.412;9.980;2023-06-14T09:13:10;4.87;;;3.60;;
8086;SDS011;4086;54.412;9.980;2023-06-14T09:15:37;3.37;;;2.90;;
8086;SDS011;4086;54.412;9.980;2023-06-14T09:18:04;4.47;;;3.17;;
8086;SDS011;4086;54.412;9.980;2023-06-14T09:20:32;5.97;;;3.20;;
8086;SDS011;4086;54.412;9.980;2023-06-14T09:22:58;4.37;;;3.07;;
8086;SDS011;4086;54.412;9.980;2023-06-14T09:25:27;4.55;;;3.20;;
8086;SDS011;4086;54.412;9.980;2023-06-14T09:27:53;4.10;;;3.22;;
8086;SDS011;4086;54.412;9.980;2023-06-14T09:30:20;5.10;;;3.17;;
8086;SDS011;4086;54.412;9.980;2023-06-14T09:32:46;3.40;;;3.10;;
8086;SDS011;4086;54.412;9.980;2023-06-14T09:35:14;6.00;;;2.90;;
8086;SDS011;4086;54.412;9.980;2023-06-14T09:37:43;5.88;;;3.00;;
8086;SDS011;4086;54.412;9.980;2023-06-14T09:40:10;3.22;;;2.85;;
8086;SDS011;4086;54.412;9.980;2023-06-14T09:42:38;3.97;;;2.97;;
8086;SDS011;4086;54.412;9.980;2023-06-14T09:45:05;4.53;;;3.05;;
8086;SDS011;4086;54.412;9.980;2023-06-14T09:47:32;3.15;;;2.85;;
8086;SDS011;4086;54.412;9.980;2023-06-14T09:49:58;5.78;;;2.90;;
8086;SDS011;4086;54.412;9.980;2023-06-14T09:52:25;3.88;;;3.15;;
8086;SDS011;4086;54.412;9.980;2023-06-14T09:54:53;2.97;;;2.65;;
8086;SDS011;4086;54.412;9.980;2023-06-14T09:57:21;5.22;;;3.30;;
8086;SDS011;4086;54.412;9.980;2023-06-14T09:59:53;7.20;;;3.00;;
8086;SDS011;4086;54.412;9.980;2023-06-14T10:02:24;4.65;;;3.40;;
8086;SDS011;4086;54.412;9.980;2023-06-14T10:04:53;4.03;;;3.17;;
8086;SDS011;4086;54.412;9.980;2023-06-14T10:07:26;8.23;;;3.35;;
8086;SDS011;4086;54.412;9.980;2023-06-14T10:09:55;5.40;;;3.20;;
8086;SDS011;4086;54.412;9.980;2023-06-14T10:12:22;3.10;;;2.78;;
8086;SDS011;4086;54.412;9.980;2023-06-14T10:14:50;4.05;;;3.00;;
8086;SDS011;4086;54.412;9.980;2023-06-14T10:17:20;3.17;;;2.88;;
8086;SDS011;4086;54.412;9.980;2023-06-14T10:19:54;3.35;;;3.00;;
8086;SDS011;4086;54.412;9.980;2023-06-14T10:22:23;3.92;;;2.83;;
8086;SDS011;4086;54.412;9.980;2023-06-14T10:24:58;3.00;;;2.70;;
8086;SDS011;4086;54.412;9.980;2023-06-14T10:27:25;4.15;;;2.97;;
8086;SDS011;4086;54.412;9.980;2023-06-14T10:30:07;5.03;;;2.92;;
8086;SDS011;4086;54.412;9.980;2023-06-14T10:32:34;4.97;;;2.92;;
8086;SDS011;4086;54.412;9.980;2023-06-14T10:35:01;2.97;;;2.78;;
8086;SDS011;4086;54.412;9.980;2023-06-14T10:37:30;3.35;;;3.05;;
8086;SDS011;4086;54.412;9.980;2023-06-14T10:39:57;3.13;;;2.83;;
8086;SDS011;4086;54.412;9.980;2023-06-14T10:42:23;6.90;;;2.88;;
8086;SDS011;4086;54.412;9.980;2023-06-14T10:44:54;3.00;;;2.80;;
8086;SDS011;4086;54.412;9.980;2023-06-14T10:47:23;4.03;;;3.00;;
8086;SDS011;4086;54.412;9.980;2023-06-14T10:49:51;4.60;;;2.83;;
8086;SDS011;4086;54.412;9.980;2023-06-14T10:52:20;5.28;;;3.00;;
8086;SDS011;4086;54.412;9.980;2023-06-14T10:55:04;3.72;;;2.60;;
8086;SDS011;4086;54.412;9.980;2023-06-14T10:57:34;2.88;;;2.60;;
8086;SDS011;4086;54.412;9.980;2023-06-14T11:00:01;6.68;;;3.13;;
8086;SDS011;4086;54.412;9.980;2023-06-14T11:02:56;3.72;;;2.90;;
8086;SDS011;4086;54.412;9.980;2023-06-14T11:05:48;4.30;;;2.45;;
8086;SDS011;4086;54.412;9.980;2023-06-14T11:11:07;7.72;;;2.90;;
8086;SDS011;4086;54.412;9.980;2023-06-14T11:13:34;4.65;;;2.88;;
8086;SDS011;4086;54.412;9.980;2023-06-14T11:16:00;3.30;;;3.00;;
8086;SDS011;4086;54.412;9.980;2023-06-14T11:18:29;4.70;;;2.78;;
8086;SDS011;4086;54.412;9.980;2023-06-14T11:20:55;7.85;;;3.05;;
8086;SDS011;4086;54.412;9.980;2023-06-14T11:23:22;4.95;;;2.85;;
8086;SDS011;4086;54.412;9.980;2023-06-14T11:25:51;3.80;;;2.92;;
8086;SDS011;4086;54.412;9.980;2023-06-14T11:28:18;3.78;;;2.90;;
8086;SDS011;4086;54.412;9.980;2023-06-14T11:30:46;2.85;;;2.55;;
8086;SDS011;4086;54.412;9.980;2023-06-14T11:33:16;4.50;;;2.40;;
8086;SDS011;4086;54.412;9.980;2023-06-14T11:35:45;2.95;;;2.60;;
8086;SDS011;4086;54.412;9.980;2023-06-14T11:38:12;3.00;;;2.55;;
8086;SDS011;4086;54.412;9.980;2023-06-14T11:40:38;4.03;;;2.42;;
8086;SDS011;4086;54.412;9.980;2023-06-14T11:43:05;6.35;;;2.78;;
8086;SDS011;4086;54.412;9.980;2023-06-14T11:45:32;3.10;;;2.55;;
8086;SDS011;4086;54.412;9.980;2023-06-14T11:47:58;3.10;;;2.47;;
8086;SDS011;4086;54.412;9.980;2023-06-14T11:50:25;3.03;;;2.78;;
8086;SDS011;4086;54.412;9.980;2023-06-14T11:52:53;4.65;;;2.78;;
8086;SDS011;4086;54.412;9.980;2023-06-14T11:55:20;2.88;;;2.25;;
8086;SDS011;4086;54.412;9.980;2023-06-14T11:57:47;3.17;;;2.75;;
8086;SDS011;4086;54.412;9.980;2023-06-14T12:00:14;5.68;;;2.85;;
8086;SDS011;4086;54.412;9.980;2023-06-14T12:02:41;2.85;;;2.65;;
8086;SDS011;4086;54.412;9.980;2023-06-14T12:05:08;2.90;;;2.70;;
8086;SDS011;4086;54.412;9.980;2023-06-14T12:07:36;5.15;;;3.05;;
8086;SDS011;4086;54.412;9.980;2023-06-14T12:10:08;4.88;;;2.90;;
8086;SDS011;4086;54.412;9.980;2023-06-14T12:12:35;4.35;;;2.70;;
8086;SDS011;4086;54.412;9.980;2023-06-14T12:15:03;8.07;;;3.10;;
8086;SDS011;4086;54.412;9.980;2023-06-14T12:17:31;3.30;;;2.95;;
8086;SDS011;4086;54.412;9.980;2023-06-14T12:19:58;3.50;;;3.20;;
8086;SDS011;4086;54.412;9.980;2023-06-14T12:22:25;3.20;;;2.90;;
8086;SDS011;4086;54.412;9.980;2023-06-14T12:24:55;3.00;;;2.53;;
8086;SDS011;4086;54.412;9.980;2023-06-14T12:27:23;3.03;;;2.72;;
8086;SDS011;4086;54.412;9.980;2023-06-14T12:29:58;5.35;;;3.00;;
8086;SDS011;4086;54.412;9.980;2023-06-14T12:32:25;4.65;;;2.75;;
8086;SDS011;4086;54.412;9.980;2023-06-14T12:34:51;3.90;;;2.70;;
8086;SDS011;4086;54.412;9.980;2023-06-14T12:37:17;3.45;;;2.97;;
8086;SDS011;4086;54.412;9.980;2023-06-14T12:39:44;7.30;;;2.88;;
8086;SDS011;4086;54.412;9.980;2023-06-14T12:42:10;3.50;;;2.55;;
8086;SDS011;4086;54.412;9.980;2023-06-14T12:44:39;4.82;;;2.78;;
8086;SDS011;4086;54.412;9.980;2023-06-14T12:47:07;3.65;;;2.83;;
8086;SDS011;4086;54.412;9.980;2023-06-14T12:49:34;3.42;;;2.95;;
8086;SDS011;4086;54.412;9.980;2023-06-14T12:52:00;3.22;;;2.70;;
8086;SDS011;4086;54.412;9.980;2023-06-14T12:54:26;4.20;;;3.05;;
8086;SDS011;4086;54.412;9.980;2023-06-14T12:56:53;5.63;;;2.70;;
8086;SDS011;4086;54.412;9.980;2023-06-14T12:59:20;4.47;;;2.97;;
8086;SDS011;4086;54.412;9.980;2023-06-14T13:01:47;3.97;;;3.10;;
8086;SDS011;4086;54.412;9.980;2023-06-14T13:04:15;3.35;;;2.58;;
8086;SDS011;4086;54.412;9.980;2023-06-14T13:06:41;3.83;;;3.00;;
8086;SDS011;4086;54.412;9.980;2023-06-14T13:09:08;3.03;;;2.80;;
8086;SDS011;4086;54.412;9.980;2023-06-14T13:11:34;4.55;;;3.10;;
8086;SDS011;4086;54.412;9.980;2023-06-14T13:14:01;3.67;;;2.80;;
8086;SDS011;4086;54.412;9.980;2023-06-14T13:16:27;4.95;;;3.13;;
8086;SDS011;4086;54.412;9.980;2023-06-14T13:18:55;3.42;;;2.88;;
8086;SDS011;4086;54.412;9.980;2023-06-14T13:21:21;3.45;;;3.03;;
8086;SDS011;4086;54.412;9.980;2023-06-14T13:23:48;3.20;;;2.70;;
8086;SDS011;4086;54.412;9.980;2023-06-14T13:26:14;3.78;;;2.90;;
8086;SDS011;4086;54.412;9.980;2023-06-14T13:28:43;4.90;;;2.85;;
8086;SDS011;4086;54.412;9.980;2023-06-14T13:31:09;3.38;;;2.85;;
8086;SDS011;4086;54.412;9.980;2023-06-14T13:33:36;3.10;;;2.90;;
8086;SDS011;4086;54.412;9.980;2023-06-14T13:36:04;3.97;;;3.25;;
8086;SDS011;4086;54.412;9.980;2023-06-14T13:38:30;3.03;;;2.70;;
8086;SDS011;4086;54.412;9.980;2023-06-14T13:40:57;3.17;;;2.88;;
8086;SDS011;4086;54.412;9.980;2023-06-14T13:43:23;2.53;;;2.33;;
8086;SDS011;4086;54.412;9.980;2023-06-14T13:45:50;2.88;;;2.67;;
8086;SDS011;4086;54.412;9.980;2023-06-14T13:48:16;3.53;;;3.17;;
8086;SDS011;4086;54.412;9.980;2023-06-14T13:50:43;2.80;;;2.60;;
8086;SDS011;4086;54.412;9.980;2023-06-14T13:53:12;4.43;;;2.88;;
8086;SDS011;4086;54.412;9.980;2023-06-14T13:55:39;3.15;;;2.35;;
8086;SDS011;4086;54.412;9.980;2023-06-14T13:58:05;3.22;;;2.92;;
8086;SDS011;4086;54.412;9.980;2023-06-14T14:00:31;4.45;;;3.05;;
8086;SDS011;4086;54.412;9.980;2023-06-14T14:02:59;3.03;;;2.75;;
8086;SDS011;4086;54.412;9.980;2023-06-14T14:05:25;3.40;;;3.10;;
8086;SDS011;4086;54.412;9.980;2023-06-14T14:07:54;3.22;;;2.70;;
8086;SDS011;4086;54.412;9.980;2023-06-14T14:10:23;3.53;;;3.15;;
8086;SDS011;4086;54.412;9.980;2023-06-14T14:12:50;3.90;;;2.95;;
8086;SDS011;4086;54.412;9.980;2023-06-14T14:15:17;4.13;;;3.17;;
8086;SDS011;4086;54.412;9.980;2023-06-14T14:17:44;3.15;;;2.85;;
8086;SDS011;4086;54.412;9.980;2023-06-14T14:20:10;9.65;;;3.58;;
8086;SDS011;4086;54.412;9.980;2023-06-14T14:22:40;4.82;;;3.17;;
8086;SDS011;4086;54.412;9.980;2023-06-14T14:25:07;3.38;;;3.03;;
8086;SDS011;4086;54.412;9.980;2023-06-14T14:27:35;3.50;;;3.20;;
8086;SDS011;4086;54.412;9.980;2023-06-14T14:30:01;4.30;;;2.90;;
8086;SDS011;4086;54.412;9.980;2023-06-14T14:32:28;2.95;;;2.75;;
8086;SDS011;4086;54.412;9.980;2023-06-14T14:34:54;3.00;;;2.80;;
8086;SDS011;4086;54.412;9.980;2023-06-14T14:37:21;3.55;;;3.25;;
8086;SDS011;4086;54.412;9.980;2023-06-14T14:39:47;3.42;;;2.97;;
8086;SDS011;4086;54.412;9.980;2023-06-14T14:42:13;6.30;;;3.28;;
8086;SDS011;4086;54.412;9.980;2023-06-14T14:44:41;3.40;;;3.10;;
8086;SDS011;4086;54.412;9.980;2023-06-14T14:47:09;4.15;;;3.00;;
8086;SDS011;4086;54.412;9.980;2023-06-14T14:49:36;4.53;;;2.95;;
8086;SDS011;4086;54.412;9.980;2023-06-14T14:52:02;4.03;;;2.90;;
8086;SDS011;4086;54.412;9.980;2023-06-14T14:54:29;4.70;;;2.88;;
8086;SDS011;4086;54.412;9.980;2023-06-14T14:56:55;4.78;;;3.40;;
8086;SDS011;4086;54.412;9.980;2023-06-14T14:59:22;3.28;;;3.08;;
8086;SDS011;4086;54.412;9.980;2023-06-14T15:01:49;3.33;;;3.03;;
8086;SDS011;4086;54.412;9.980;2023-06-14T15:04:16;5.60;;;3.10;;
8086;SDS011;4086;54.412;9.980;2023-06-14T15:06:43;3.67;;;2.80;;
8086;SDS011;4086;54.412;9.980;2023-06-14T15:09:09;3.20;;;2.90;;
8086;SDS011;4086;54.412;9.980;2023-06-14T15:11:35;3.53;;;3.00;;
8086;SDS011;4086;54.412;9.980;2023-06-14T15:14:02;3.22;;;2.90;;
8086;SDS011;4086;54.412;9.980;2023-06-14T15:16:28;4.55;;;3.10;;
8086;SDS011;4086;54.412;9.980;2023-06-14T15:18:56;3.72;;;3.00;;